createdAt,value
2018-12-22T00:02:01.495Z,100389.75
2018-12-22T00:04:30.333Z,100383.76
2018-12-22T00:06:59.181Z,100394.89
2018-12-22T00:09:28.016Z,100393.70
2018-12-22T00:11:56.870Z,100393.00
2018-12-22T00:14:25.828Z,100401.62
2018-12-22T00:16:54.662Z,100398.63
2018-12-22T00:19:23.699Z,100395.29
2018-12-22T00:21:52.585Z,100393.30
2018-12-22T00:24:21.557Z,100390.30
2018-12-22T00:26:50.463Z,100391.14
2018-12-22T00:29:19.304Z,100383.35
2018-12-22T00:31:48.242Z,100382.38
2018-12-22T00:34:17.136Z,100381.06
2018-12-22T00:36:46.034Z,100380.71
2018-12-22T00:39:15.345Z,100386.83
2018-12-22T00:41:44.246Z,100371.82
2018-12-22T00:44:13.089Z,100385.86
2018-12-22T00:46:42.057Z,100386.34
2018-12-22T00:49:10.869Z,100383.05
2018-12-22T00:51:39.785Z,100381.95
2018-12-22T00:54:08.629Z,100387.11
2018-12-22T00:56:38.121Z,100384.11
2018-12-22T00:59:06.972Z,100381.83
2018-12-22T01:01:35.838Z,100391.06
2018-12-22T01:04:04.860Z,100385.91
2018-12-22T01:06:33.836Z,100387.45
2018-12-22T01:09:03.658Z,100390.80
2018-12-22T01:11:32.550Z,100388.29
2018-12-22T01:14:01.376Z,100400.66
2018-12-22T01:16:30.202Z,100383.84
2018-12-22T01:18:59.109Z,100392.95
2018-12-22T01:21:28.089Z,100384.06
2018-12-22T01:23:57.108Z,100386.48
2018-12-22T01:26:25.994Z,100384.55
2018-12-22T01:28:54.869Z,100397.41
2018-12-22T01:31:23.721Z,100397.63
2018-12-22T01:33:52.557Z,100394.14
2018-12-22T01:36:21.441Z,100389.83
2018-12-22T01:38:50.344Z,100397.75
2018-12-22T01:41:19.213Z,100387.19
2018-12-22T01:43:48.225Z,100370.99
2018-12-22T01:46:17.196Z,100357.78
2018-12-22T01:48:46.095Z,100367.52
2018-12-22T01:51:14.985Z,100371.12
2018-12-22T01:53:43.839Z,100372.93
2018-12-22T01:56:12.777Z,100377.38
2018-12-22T01:58:47.820Z,100379.88
2018-12-22T02:01:12.592Z,100370.29
2018-12-22T02:03:41.898Z,100374.60
2018-12-22T02:06:10.831Z,100373.64
2018-12-22T02:08:39.752Z,100380.59
2018-12-22T02:11:08.624Z,100376.89
2018-12-22T02:13:37.613Z,100382.52
2018-12-22T02:16:06.459Z,100378.92
2018-12-22T02:18:35.319Z,100383.72
2018-12-22T02:21:04.289Z,100363.55
2018-12-22T02:23:33.104Z,100379.05
2018-12-22T02:26:01.966Z,100347.84
2018-12-22T02:28:30.825Z,100345.91
2018-12-22T02:30:59.880Z,100341.73
2018-12-22T02:33:29.229Z,100326.50
2018-12-22T02:35:58.194Z,100335.61
2018-12-22T02:38:27.048Z,100330.59
2018-12-22T02:40:56.005Z,100327.34
2018-12-22T02:43:24.978Z,100332.62
2018-12-22T02:45:53.969Z,100329.01
2018-12-22T02:48:23.789Z,100335.61
2018-12-22T02:50:52.632Z,100326.72
2018-12-22T02:53:22.289Z,100328.39
2018-12-22T02:55:51.253Z,100322.27
2018-12-22T02:58:20.136Z,100317.48
2018-12-22T03:00:49.057Z,100324.70
2018-12-22T03:03:18.020Z,100313.03
2018-12-22T03:05:47.847Z,100315.32
2018-12-22T03:08:16.764Z,100308.72
2018-12-22T03:10:45.631Z,100309.20
2018-12-22T03:13:14.511Z,100310.88
2018-12-22T03:15:44.725Z,100303.44
2018-12-22T03:18:13.578Z,100303.92
2018-12-22T03:20:42.524Z,100296.35
2018-12-22T03:23:11.377Z,100293.36
2018-12-22T03:25:40.425Z,100289.27
2018-12-22T03:28:09.456Z,100286.41
2018-12-22T03:30:38.296Z,100280.16
2018-12-22T03:33:07.166Z,100269.95
2018-12-22T03:35:36.070Z,100265.98
2018-12-22T03:38:05.176Z,100256.73
2018-12-22T03:40:34.148Z,100249.78
2018-12-22T03:43:03.157Z,100260.70
2018-12-22T03:45:32.130Z,100257.36
2018-12-22T03:48:01.133Z,100260.34
2018-12-22T03:50:30.049Z,100254.02
2018-12-22T03:52:59.123Z,100246.09
2018-12-22T03:55:28.005Z,100256.88
2018-12-22T03:57:57.895Z,100263.33
2018-12-22T04:00:27.032Z,100260.55
2018-12-22T04:02:56.209Z,100259.77
2018-12-22T04:05:25.201Z,100271.98
2018-12-22T04:07:54.103Z,100269.61
2018-12-22T04:10:22.980Z,100258.36
2018-12-22T04:12:51.797Z,100261.95
2018-12-22T04:15:20.652Z,100265.73
2018-12-22T04:17:49.564Z,100266.29
2018-12-22T04:20:18.978Z,100266.55
2018-12-22T04:22:47.878Z,100285.05
2018-12-22T04:25:16.849Z,100315.86
2018-12-22T04:27:45.847Z,100304.99
2018-12-22T04:30:14.991Z,100278.53
2018-12-22T04:32:44.020Z,100276.50
2018-12-22T04:35:12.925Z,100281.78
2018-12-22T04:37:41.817Z,100282.97
2018-12-22T04:40:10.686Z,100287.41
2018-12-22T04:42:39.512Z,100283.22
2018-12-22T04:45:08.598Z,100281.33
2018-12-22T04:47:40.025Z,100294.64
2018-12-22T04:50:08.913Z,100300.05
2018-12-22T04:52:37.796Z,100305.50
2018-12-22T04:55:06.820Z,100304.45
2018-12-22T04:57:35.920Z,100310.26
2018-12-22T05:00:05.504Z,100309.33
2018-12-22T05:02:34.396Z,100305.11
2018-12-22T05:05:03.416Z,100308.09
2018-12-22T05:07:32.273Z,100308.58
2018-12-22T05:10:01.185Z,100322.59
2018-12-22T05:12:30.157Z,100310.64
2018-12-22T05:14:59.046Z,100335.91
2018-12-22T05:17:27.932Z,100309.97
2018-12-22T05:19:56.817Z,100320.88
2018-12-22T05:22:26.348Z,100302.88
2018-12-22T05:24:55.330Z,100314.83
2018-12-22T05:27:24.232Z,100317.53
2018-12-22T05:29:53.217Z,100329.72
2018-12-22T05:32:22.557Z,100325.38
2018-12-22T05:34:51.573Z,100323.52
2018-12-22T05:37:20.504Z,100334.87
2018-12-22T05:39:49.407Z,100340.91
2018-12-22T05:42:18.224Z,100341.63
2018-12-22T05:44:47.236Z,100388.37
2018-12-22T05:47:16.140Z,100343.26
2018-12-22T05:49:44.973Z,100337.85
2018-12-22T05:52:14.553Z,100355.00
2018-12-22T05:54:43.459Z,100366.61
2018-12-22T05:57:12.557Z,100356.25
2018-12-22T05:59:44.525Z,100354.80
2018-12-22T06:02:13.372Z,100372.92
2018-12-22T06:04:42.272Z,100364.65
2018-12-22T06:07:11.304Z,100353.77
2018-12-22T06:09:40.274Z,100370.77
2018-12-22T06:12:09.173Z,100369.66
2018-12-22T06:14:38.126Z,100383.56
2018-12-22T06:17:07.104Z,100379.73
2018-12-22T06:19:35.940Z,100391.84
2018-12-22T06:22:04.837Z,100397.59
2018-12-22T06:24:33.776Z,100393.64
2018-12-22T06:27:02.594Z,100417.87
2018-12-22T06:29:31.492Z,100408.89
2018-12-22T06:32:00.672Z,100405.12
2018-12-22T06:34:29.680Z,100384.89
2018-12-22T06:36:59.091Z,100404.22
2018-12-22T06:39:27.925Z,100399.23
2018-12-22T06:41:56.857Z,100403.20
2018-12-22T06:44:25.809Z,100421.66
2018-12-22T06:46:54.642Z,100481.02
2018-12-22T06:49:24.337Z,100470.81
2018-12-22T06:51:53.913Z,100464.47
2018-12-22T06:54:22.742Z,100473.83
2018-12-22T06:56:51.645Z,100493.02
2018-12-22T06:59:20.529Z,100496.27
2018-12-22T07:01:49.524Z,100497.59
2018-12-22T07:04:18.411Z,100503.22
2018-12-22T07:06:47.243Z,100503.22
2018-12-22T07:09:16.756Z,100502.38
2018-12-22T07:11:45.633Z,100508.49
2018-12-22T07:14:14.577Z,100509.20
2018-12-22T07:16:43.501Z,100512.91
2018-12-22T07:19:12.490Z,100512.56
2018-12-22T07:21:41.386Z,100532.09
2018-12-22T07:24:10.317Z,100531.13
2018-12-22T07:26:40.078Z,100542.64
2018-12-22T07:29:08.952Z,100541.80
2018-12-22T07:31:37.792Z,100541.93
2018-12-22T07:34:06.633Z,100544.69
2018-12-22T07:36:35.521Z,100558.38
2018-12-22T07:39:07.188Z,100570.88
2018-12-22T07:41:36.568Z,100560.09
2018-12-22T07:44:05.496Z,100576.88
2018-12-22T07:46:34.438Z,100604.09
2018-12-22T07:49:04.301Z,100585.63
2018-12-22T07:51:33.217Z,100605.89
2018-12-22T07:54:02.061Z,100605.41
2018-12-22T07:56:30.893Z,100629.27
2018-12-22T07:58:59.845Z,100629.27
2018-12-22T08:01:28.660Z,100629.98
2018-12-22T08:03:57.536Z,100633.23
2018-12-22T08:06:26.435Z,100632.63
2018-12-22T08:08:55.269Z,100666.42
2018-12-22T08:11:25.119Z,100650.97
2018-12-22T08:13:54.064Z,100662.23
2018-12-22T08:16:23.036Z,100668.47
2018-12-22T08:18:51.987Z,100689.80
2018-12-22T08:21:20.873Z,100705.27
2018-12-22T08:23:49.758Z,100705.14
2018-12-22T08:26:18.749Z,100711.26
2018-12-22T08:28:47.636Z,100720.84
2018-12-22T08:31:16.609Z,100724.92
2018-12-22T08:33:45.445Z,100733.31
2018-12-22T08:36:14.304Z,100741.83
2018-12-22T08:38:44.181Z,100761.48
2018-12-22T08:41:13.124Z,100763.28
2018-12-22T08:43:41.972Z,100769.28
2018-12-22T08:46:10.800Z,100770.00
2018-12-22T08:48:40.704Z,100777.80
2018-12-22T08:51:09.517Z,100787.96
2018-12-22T08:53:38.325Z,100798.64
2018-12-22T08:56:07.276Z,100799.23
2018-12-22T08:58:36.172Z,100825.25
2018-12-22T09:01:05.183Z,100808.00
2018-12-22T09:03:34.073Z,100834.13
2018-12-22T09:06:02.944Z,100832.45
2018-12-22T09:08:31.856Z,100833.66
2018-12-22T09:11:00.730Z,100843.84
2018-12-22T09:13:29.805Z,100841.56
2018-12-22T09:15:58.616Z,100839.66
2018-12-22T09:18:27.494Z,100848.89
2018-12-22T09:20:56.341Z,100852.84
2018-12-22T09:23:25.165Z,100850.57
2018-12-22T09:25:54.089Z,100865.66
2018-12-22T09:28:22.953Z,100871.29
2018-12-22T09:31:00.474Z,100882.45
2018-12-22T09:33:22.676Z,100879.94
2018-12-22T09:35:52.468Z,100889.78
2018-12-22T09:38:21.308Z,100887.00
2018-12-22T09:40:50.184Z,100889.41
2018-12-22T09:43:19.050Z,100885.81
2018-12-22T09:45:47.948Z,100893.36
2018-12-22T09:48:16.773Z,100898.28
2018-12-22T09:50:45.741Z,100902.83
2018-12-22T09:53:14.557Z,100904.87
2018-12-22T09:55:43.434Z,100910.03
2018-12-22T09:58:12.413Z,100898.89
2018-12-22T10:00:42.077Z,100898.17
2018-12-22T10:03:11.429Z,100896.73
2018-12-22T10:05:44.475Z,100896.03
2018-12-22T10:08:13.281Z,100908.59
2018-12-22T10:10:42.173Z,100904.41
2018-12-22T10:13:11.009Z,100904.65
2018-12-22T10:15:39.960Z,100911.85
2018-12-22T10:18:08.860Z,100908.26
2018-12-22T10:20:37.761Z,100913.53
2018-12-22T10:23:06.651Z,100923.01
2018-12-22T10:25:35.640Z,100920.23
2018-12-22T10:28:04.640Z,100920.60
2018-12-22T10:30:34.148Z,100921.55
2018-12-22T10:33:04.990Z,100933.68
2018-12-22T10:35:33.882Z,100922.16
2018-12-22T10:38:02.814Z,100937.88
2018-12-22T10:40:31.751Z,100935.84
2018-12-22T10:43:00.657Z,100942.92
2018-12-22T10:45:29.613Z,100950.47
2018-12-22T10:47:58.729Z,100950.70
2018-12-22T10:50:27.697Z,100938.47
2018-12-22T10:52:56.607Z,100935.61
2018-12-22T10:55:25.457Z,100941.95
2018-12-22T10:57:54.286Z,100942.67
2018-12-22T11:00:23.129Z,100942.78
2018-12-22T11:02:52.060Z,100944.12
2018-12-22T11:05:20.963Z,100973.74
2018-12-22T11:07:49.986Z,100961.50
2018-12-22T11:10:22.148Z,100976.44
2018-12-22T11:12:53.956Z,100968.73
2018-12-22T11:15:22.827Z,100972.66
2018-12-22T11:17:51.969Z,100979.10
2018-12-22T11:20:20.847Z,100989.91
2018-12-22T11:22:50.012Z,100982.55
2018-12-22T11:25:22.713Z,100987.08
2018-12-22T11:27:52.954Z,100967.86
2018-12-22T11:30:30.666Z,100962.59
2018-12-22T11:32:59.640Z,100981.28
2018-12-22T11:35:29.551Z,100971.38
2018-12-22T11:37:58.465Z,100966.63
2018-12-22T11:40:27.482Z,100976.29
2018-12-22T11:42:56.521Z,100954.81
2018-12-22T11:45:25.413Z,100971.76
2018-12-22T11:48:04.995Z,100976.22
2018-12-22T11:50:33.965Z,100994.78
2018-12-22T11:53:02.850Z,100989.53
2018-12-22T11:55:31.750Z,100993.88
2018-12-22T11:58:01.419Z,100991.36
2018-12-22T12:00:30.427Z,101017.90
2018-12-22T12:02:59.254Z,100998.69
2018-12-22T12:05:28.096Z,100996.52
2018-12-22T12:07:57.008Z,101004.22
2018-12-22T12:10:25.828Z,101003.86
2018-12-22T12:12:54.780Z,100996.90
2018-12-22T12:15:26.413Z,100999.64
2018-12-22T12:19:06.954Z,101010.70
2018-12-22T12:21:36.570Z,101010.47
2018-12-22T12:24:05.500Z,101030.99
2018-12-22T12:26:34.397Z,101040.00
2018-12-22T12:29:03.284Z,101052.95
2018-12-22T12:31:32.167Z,101034.59
2018-12-22T12:34:01.277Z,101023.08
2018-12-22T12:36:30.300Z,101027.88
2018-12-22T12:38:59.289Z,101038.66
2018-12-22T12:41:28.144Z,101027.88
2018-12-22T12:43:57.037Z,101027.13
2018-12-22T12:46:34.458Z,101034.25
2018-12-22T12:49:03.542Z,101032.08
2018-12-22T12:51:32.601Z,101027.39
2018-12-22T12:54:01.491Z,101039.75
2018-12-22T12:56:31.004Z,101051.16
2018-12-22T12:58:59.880Z,101046.81
2018-12-22T13:01:28.785Z,101050.30
2018-12-22T13:03:57.669Z,101057.99
2018-12-22T13:06:26.693Z,101055.13
2018-12-22T13:08:56.096Z,101056.44
2018-12-22T13:11:25.049Z,101057.17
2018-12-22T13:13:57.519Z,101061.25
2018-12-22T13:16:26.343Z,101063.18
2018-12-22T13:18:55.224Z,101060.28
2018-12-22T13:21:24.421Z,101074.94
2018-12-22T13:23:53.296Z,101071.93
2018-12-22T13:26:22.128Z,101060.30
2018-12-22T13:28:51.006Z,101066.06
2018-12-22T13:31:22.616Z,101063.81
2018-12-22T13:33:51.516Z,101069.58
2018-12-22T13:36:20.376Z,101069.92
2018-12-22T13:38:58.746Z,101075.78
2018-12-22T13:41:27.628Z,101074.36
2018-12-22T13:43:56.577Z,101081.67
2018-12-22T13:46:25.445Z,101084.77
2018-12-22T13:48:54.542Z,101084.77
2018-12-22T13:51:23.719Z,101086.45
2018-12-22T13:53:53.297Z,101116.11
2018-12-22T13:56:22.205Z,101101.61
2018-12-22T13:58:51.043Z,101100.16
2018-12-22T14:01:21.606Z,101112.80
2018-12-22T14:03:51.378Z,101105.95
2018-12-22T14:06:27.008Z,101116.52
2018-12-22T14:08:55.916Z,101116.76
2018-12-22T14:11:24.759Z,101113.75
2018-12-22T14:13:55.433Z,101123.02
2018-12-22T14:16:30.194Z,101124.70
2018-12-22T14:19:03.632Z,101140.90
2018-12-22T14:21:32.483Z,101122.98
2018-12-22T14:24:10.076Z,101123.48
2018-12-22T14:26:39.153Z,101119.02
2018-12-22T14:29:08.109Z,101122.38
2018-12-22T14:31:38.008Z,101123.55
2018-12-22T14:34:11.961Z,101114.07
2018-12-22T14:36:41.254Z,101131.09
2018-12-22T14:39:10.437Z,101143.31
2018-12-22T14:41:39.577Z,101178.33
2018-12-22T14:44:08.571Z,101168.87
2018-12-22T14:46:37.476Z,101176.53
2018-12-22T14:49:06.379Z,101187.67
2018-12-22T14:51:35.415Z,101185.63
2018-12-22T14:54:05.137Z,101190.17
2018-12-22T14:56:44.360Z,101186.54
2018-12-22T14:59:15.567Z,101196.26
2018-12-22T15:01:46.688Z,101205.49
2018-12-22T15:04:15.572Z,101194.45
2018-12-22T15:06:44.426Z,101208.50
2018-12-22T15:09:13.655Z,101208.39
2018-12-22T15:11:42.548Z,101208.50
2018-12-22T15:14:11.389Z,101213.78
2018-12-22T15:16:40.318Z,101222.43
2018-12-22T15:19:09.200Z,101217.89
2018-12-22T15:21:38.177Z,101222.43
2018-12-22T15:24:08.285Z,101229.87
2018-12-22T15:26:37.108Z,101235.26
2018-12-22T15:29:06.067Z,101240.54
2018-12-22T15:31:34.897Z,101237.90
2018-12-22T15:34:04.123Z,101241.38
2018-12-22T15:36:33.705Z,101238.48
2018-12-22T15:39:03.774Z,101245.55
2018-12-22T15:41:32.696Z,101241.13
2018-12-22T15:44:01.526Z,101251.45
2018-12-22T15:46:30.492Z,101250.23
2018-12-22T15:48:59.414Z,101247.70
2018-12-22T15:51:29.200Z,101253.46
2018-12-22T15:53:58.120Z,101255.73
2018-12-22T15:56:26.986Z,101258.00
2018-12-22T15:58:55.941Z,101261.59
2018-12-22T16:01:24.769Z,101271.04
2018-12-22T16:03:53.691Z,101270.20
2018-12-22T16:06:22.518Z,101280.49
2018-12-22T16:08:52.374Z,101277.85
2018-12-22T16:11:21.191Z,101271.88
2018-12-22T16:13:50.067Z,101280.73
2018-12-22T16:16:19.136Z,101276.04
2018-12-22T16:18:47.977Z,101279.62
2018-12-22T16:21:17.794Z,101279.27
2018-12-22T16:23:46.755Z,101280.47
2018-12-22T16:26:16.204Z,101287.97
2018-12-22T16:28:51.403Z,101286.65
2018-12-22T16:31:20.311Z,101285.54
2018-12-22T16:33:49.280Z,101286.48
2018-12-22T16:36:18.193Z,101289.63
2018-12-22T16:38:47.041Z,101297.66
2018-12-22T16:41:16.229Z,101302.45
2018-12-22T16:43:45.118Z,101300.77
2018-12-22T16:46:13.909Z,101302.08
2018-12-22T16:48:45.251Z,101304.83
2018-12-22T16:51:14.933Z,101297.49
2018-12-22T16:53:43.793Z,101306.45
2018-12-22T16:56:12.672Z,101308.25
2018-12-22T16:58:44.512Z,101314.95
2018-12-22T17:01:29.021Z,101316.84
2018-12-22T17:03:57.846Z,101312.63
2018-12-22T17:06:26.700Z,101322.83
2018-12-22T17:08:55.696Z,101325.09
2018-12-22T17:11:24.553Z,101327.84
2018-12-22T17:13:53.345Z,101330.00
2018-12-22T17:16:22.240Z,101333.59
2018-12-22T17:18:51.129Z,101334.64
2018-12-22T17:21:25.513Z,101334.73
2018-12-22T17:24:33.078Z,101338.33
2018-12-22T17:27:02.005Z,101346.23
2018-12-22T17:29:30.875Z,101340.22
2018-12-22T17:31:59.682Z,101359.63
2018-12-22T17:34:28.502Z,101364.52
2018-12-22T17:36:57.376Z,101366.31
2018-12-22T17:39:26.259Z,101371.11
2018-12-22T17:41:55.105Z,101375.64
2018-12-22T17:44:24.120Z,101377.94
2018-12-22T17:46:52.985Z,101389.80
2018-12-22T17:49:21.841Z,101393.39
2018-12-22T17:51:50.709Z,101395.75
2018-12-22T17:54:19.530Z,101404.67
2018-12-22T17:56:48.448Z,101408.62
2018-12-22T17:59:17.337Z,101420.12
2018-12-22T18:01:46.149Z,101412.69
2018-12-22T18:04:15.183Z,101416.64
2018-12-22T18:06:44.085Z,101423.70
2018-12-22T18:09:13.541Z,101426.81
2018-12-22T18:11:42.432Z,101433.50
2018-12-22T18:14:11.765Z,101440.47
2018-12-22T18:16:40.693Z,101447.72
2018-12-22T18:19:09.548Z,101439.72
2018-12-22T18:21:38.568Z,101445.84
2018-12-22T18:24:07.423Z,101444.05
2018-12-22T18:26:36.244Z,101453.27
2018-12-22T18:29:05.290Z,101447.25
2018-12-22T18:31:34.125Z,101453.94
2018-12-22T18:34:02.989Z,101465.94
2018-12-22T18:36:31.947Z,101462.17
2018-12-22T18:39:00.884Z,101468.02
2018-12-22T18:41:31.736Z,101469.91
2018-12-22T18:44:00.592Z,101472.36
2018-12-22T18:46:29.409Z,101468.97
2018-12-22T18:48:58.262Z,101468.59
2018-12-22T18:51:27.198Z,101462.98
2018-12-22T18:53:56.013Z,101455.65
2018-12-22T18:56:25.944Z,101459.59
2018-12-22T18:58:56.335Z,101464.97
2018-12-22T19:01:25.410Z,101471.65
2018-12-22T19:03:54.241Z,101475.42
2018-12-22T19:06:23.072Z,101475.05
2018-12-22T19:08:52.993Z,101474.58
2018-12-22T19:11:22.119Z,101473.73
2018-12-22T19:13:50.988Z,101473.82
2018-12-22T19:16:20.902Z,101481.83
2018-12-22T19:18:49.715Z,101484.21
2018-12-22T19:21:18.657Z,101483.18
2018-12-22T19:23:47.434Z,101487.98
2018-12-22T19:26:16.308Z,101482.80
2018-12-22T19:28:45.241Z,101490.33
2018-12-22T19:31:14.082Z,101504.06
2018-12-22T19:33:43.985Z,101500.49
2018-12-22T19:36:12.832Z,101495.03
2018-12-22T19:38:41.651Z,101492.02
2018-12-22T19:41:10.791Z,101500.78
2018-12-22T19:43:39.745Z,101502.78
2018-12-22T19:46:08.560Z,101511.63
2018-12-22T19:48:37.392Z,101501.94
2018-12-22T19:51:06.200Z,101502.03
2018-12-22T19:53:35.097Z,101491.68
2018-12-22T19:56:04.048Z,101496.48
2018-12-22T19:58:32.936Z,101494.87
2018-12-22T20:01:01.858Z,101501.94
2018-12-22T20:03:30.712Z,101497.52
2018-12-22T20:06:00.527Z,101501.66
2018-12-22T20:08:29.427Z,101508.23
2018-12-22T20:10:58.254Z,101514.06
2018-12-22T20:13:27.049Z,101513.34
2018-12-22T20:15:55.868Z,101521.34
2018-12-22T20:18:24.701Z,101512.68
2018-12-22T20:20:53.574Z,101522.84
2018-12-22T20:23:22.453Z,101527.06
2018-12-22T20:25:51.329Z,101532.89
2018-12-22T20:28:20.181Z,101535.14
2018-12-22T20:30:49.019Z,101527.91
2018-12-22T20:33:17.808Z,101533.93
2018-12-22T20:35:46.816Z,101532.80
2018-12-22T20:38:15.699Z,101529.48
2018-12-22T20:40:44.518Z,101542.47
2018-12-22T20:43:13.357Z,101540.69
2018-12-22T20:45:42.213Z,101536.64
2018-12-22T20:48:11.113Z,101540.69
2018-12-22T20:50:40.393Z,101537.02
2018-12-22T20:53:09.258Z,101543.89
2018-12-22T20:55:38.139Z,101544.83
2018-12-22T20:58:06.971Z,101553.20
2018-12-22T21:00:35.801Z,101541.44
2018-12-22T21:03:05.005Z,101556.02
2018-12-22T21:05:37.708Z,101552.63
2018-12-22T21:08:06.524Z,101551.59
2018-12-22T21:10:35.344Z,101564.30
2018-12-22T21:13:04.317Z,101572.37
2018-12-22T21:15:33.389Z,101563.25
2018-12-22T21:18:02.213Z,101568.27
2018-12-22T21:20:31.135Z,101565.91
2018-12-22T21:23:00.910Z,101567.88
2018-12-22T21:25:30.547Z,101566.27
2018-12-22T21:27:59.526Z,101568.99
2018-12-22T21:30:28.445Z,101584.41
2018-12-22T21:32:57.304Z,101564.79
2018-12-22T21:35:26.185Z,101574.47
2018-12-22T21:37:55.016Z,101576.34
2018-12-22T21:40:23.840Z,101575.97
2018-12-22T21:42:52.686Z,101575.13
2018-12-22T21:45:21.513Z,101575.30
2018-12-22T21:47:50.329Z,101583.48
2018-12-22T21:50:19.149Z,101591.38
2018-12-22T21:52:47.973Z,101594.95
2018-12-22T21:55:16.921Z,101606.05
2018-12-22T21:57:45.862Z,101603.79
2018-12-22T22:00:14.743Z,101596.83
2018-12-22T22:02:43.652Z,101608.67
2018-12-22T22:05:12.985Z,101606.05
2018-12-22T22:07:41.819Z,101613.00
2018-12-22T22:10:10.872Z,101611.05
2018-12-22T22:12:39.733Z,101615.55
2018-12-22T22:15:08.589Z,101615.08
2018-12-22T22:17:37.413Z,101613.77
2018-12-22T22:20:06.524Z,101623.45
2018-12-22T22:22:35.409Z,101622.59
2018-12-22T22:25:04.531Z,101630.41
2018-12-22T22:27:33.445Z,101636.05
2018-12-22T22:30:02.405Z,101647.81
2018-12-22T22:32:31.335Z,101640.94
2018-12-22T22:35:00.508Z,101649.30
2018-12-22T22:37:29.421Z,101654.02
2018-12-22T22:39:58.453Z,101664.37
2018-12-22T22:42:27.806Z,101668.58
2018-12-22T22:44:56.642Z,101664.16
2018-12-22T22:47:25.447Z,101673.75
2018-12-22T22:49:54.252Z,101680.92
2018-12-22T22:52:23.112Z,101686.19
2018-12-22T22:54:52.848Z,101678.67
2018-12-22T22:57:22.289Z,101687.50
2018-12-22T22:59:51.094Z,101676.59
2018-12-22T23:02:19.993Z,101680.25
2018-12-22T23:04:54.299Z,101673.95
2018-12-22T23:07:19.744Z,101663.61
2018-12-22T23:09:48.637Z,101663.69
2018-12-22T23:12:17.553Z,101671.13
2018-12-22T23:14:46.380Z,101665.94
2018-12-22T23:17:15.304Z,101670.10
2018-12-22T23:19:44.365Z,101662.38
2018-12-22T23:22:13.160Z,101659.28
2018-12-22T23:24:42.233Z,101663.78
2018-12-22T23:27:11.225Z,101660.22
2018-12-22T23:29:40.057Z,101667.73
2018-12-22T23:32:08.884Z,101659.37
2018-12-22T23:34:37.764Z,101658.05
2018-12-22T23:37:06.697Z,101669.81
2018-12-22T23:39:35.520Z,101668.11
2018-12-22T23:42:04.524Z,101661.91
2018-12-22T23:44:33.325Z,101664.55
2018-12-22T23:47:02.156Z,101673.20
2018-12-22T23:52:33.162Z,101671.30
2018-12-22T23:55:02.029Z,101682.42
2018-12-22T23:57:31.029Z,101677.53
2018-12-22T23:59:59.922Z,101681.27
